< Cyclone 199010 1990 Season Cyclone 199012 >
Cyclone 199011 (ALEX)
General InformationDetailed Track InformationTrack Information on Google MapsList of All Images || ResourceGoogle EarthGE AnimationAtom FeedGeoJSON
Detalied Best Track Wind (Time Zone = UTC)
Year Month Day Hour Lat. Long. Wind (kt) Gust (kt) Direc. of Major Storm Axis Radius of Major Storm Axis (nm) Radius of Minor Storm Axis (nm) Direc. of Major Gale Axis Radius of Major Gale Axis (nm) Radius of Minor Gale Axis (nm) Image
1990 3 16 00 -12.2 112.4 35 -1 symmetric - - symmetric - - Image
1990 3 16 06 -12.3 111.8 45 -1 symmetric - - symmetric - - Image
1990 3 16 12 -12.3 111.2 49 -1 symmetric - - symmetric - - Image
1990 3 16 18 -12.5 110.6 53 -1 symmetric - - symmetric - - Image
1990 3 17 00 -12.7 110.0 56 -1 symmetric - - symmetric - - Image
1990 3 17 06 -12.9 109.6 60 -1 symmetric - - symmetric - - Image
1990 3 17 12 -13.3 109.0 70 -1 symmetric - - symmetric - - Image
1990 3 17 18 -13.4 108.6 82 -1 symmetric - - symmetric - - Image
1990 3 18 00 -13.5 108.2 93 -1 symmetric - - symmetric - - Image
1990 3 18 06 -14.1 107.5 97 -1 symmetric - - symmetric - - Image
1990 3 18 12 -14.8 106.4 103 -1 symmetric - - symmetric - - Image
1990 3 18 18 -14.9 105.8 105 -1 symmetric - - symmetric - - Image
1990 3 19 00 -14.9 105.0 109 -1 symmetric - - symmetric - - Image
1990 3 19 06 -15.5 103.9 113 -1 symmetric - - symmetric - - Image
1990 3 19 12 -16.1 102.7 115 -1 symmetric - - symmetric - - Image
1990 3 19 18 -16.4 101.5 115 -1 symmetric - - symmetric - - Image
1990 3 20 00 -16.6 100.6 115 -1 symmetric - - symmetric - - Image
1990 3 20 06 -17.3 99.2 103 -1 symmetric - - symmetric - - Image
1990 3 20 12 -18.3 97.6 99 -1 symmetric - - symmetric - - Image
1990 3 20 18 -18.9 96.6 95 -1 symmetric - - symmetric - - Image
1990 3 21 00 -19.5 95.6 89 -1 symmetric - - symmetric - - Image
1990 3 21 06 -20.3 94.3 84 -1 symmetric - - symmetric - - Image
1990 3 21 12 -21.1 93.0 78 -1 symmetric - - symmetric - - Image
1990 3 21 18 -21.5 92.6 70 -1 symmetric - - symmetric - - Image
1990 3 22 00 -21.9 92.1 66 -1 symmetric - - symmetric - - Image
1990 3 22 06 -22.5 91.5 60 -1 symmetric - - symmetric - - Image
1990 3 22 12 -23.9 91.0 56 -1 symmetric - - symmetric - - Image
1990 3 22 18 -24.9 91.2 51 -1 symmetric - - symmetric - - Image
1990 3 23 00 -25.7 91.6 45 -1 symmetric - - symmetric - - Image
1990 3 23 06 -26.4 92.3 41 -1 symmetric - - symmetric - - Image
1990 3 23 12 -27.3 92.9 35 -1 symmetric - - symmetric - - Image
1990 3 23 18 -27.0 94.3 33 -1 symmetric - - symmetric - - Image
1990 3 24 00 -26.5 96.1 31 -1 symmetric - - symmetric - - Image
1990 3 24 06 -26.2 97.6 29 -1 symmetric - - symmetric - - Image
1990 3 24 12 -25.4 98.5 27 -1 symmetric - - symmetric - - Image
1990 3 24 18 -24.8 99.2 25 -1 symmetric - - symmetric - - Image
1990 3 25 00 -21.9 99.5 25 -1 symmetric - - symmetric - - Image
1990 3 25 06 -20.1 99.0 23 -1 symmetric - - symmetric - - Image
1990 3 25 12 -19.3 98.0 0 -1 symmetric - - symmetric - - Image
1990 3 25 18 -18.7 96.6 0 -1 symmetric - - symmetric - - Image
1990 3 26 00 -18.1 94.9 0 -1 symmetric - - symmetric - - Image
< Cyclone 199010 1990 Season Cyclone 199012 >

Help